createdAt,value
2022-08-16T00:00:55.145Z,0.00
2022-08-16T00:01:55.162Z,0.00
2022-08-16T00:02:55.116Z,0.00
2022-08-16T00:03:55.100Z,0.00
2022-08-16T00:04:55.091Z,0.00
2022-08-16T00:05:57.847Z,0.00
2022-08-16T00:06:55.066Z,0.00
2022-08-16T00:07:56.971Z,0.00
2022-08-16T00:08:55.049Z,0.00
2022-08-16T00:09:55.028Z,0.00
2022-08-16T00:10:55.016Z,0.00
2022-08-16T00:11:55.342Z,0.00
2022-08-16T00:12:54.994Z,0.00
2022-08-16T00:13:55.624Z,0.00
2022-08-16T00:14:56.898Z,0.00
2022-08-16T00:15:54.959Z,0.00
2022-08-16T00:17:00.549Z,0.00
2022-08-16T00:17:57.105Z,0.00
2022-08-16T00:18:54.927Z,0.00
2022-08-16T00:19:55.138Z,0.00
2022-08-16T00:20:54.929Z,0.00
2022-08-16T00:22:01.002Z,0.00
2022-08-16T00:22:54.925Z,0.00
2022-08-16T00:23:54.924Z,0.00
2022-08-16T00:24:54.880Z,0.00
2022-08-16T00:26:33.290Z,0.00
2022-08-16T00:26:54.838Z,0.00
2022-08-16T00:27:54.825Z,0.00
2022-08-16T00:28:55.090Z,0.00
2022-08-16T00:30:08.792Z,0.00
2022-08-16T00:30:54.798Z,0.00
2022-08-16T00:32:00.705Z,0.00
2022-08-16T00:32:57.133Z,0.00
2022-08-16T00:33:54.745Z,0.00
2022-08-16T00:34:54.763Z,0.00
2022-08-16T00:35:54.858Z,0.00
2022-08-16T00:36:55.760Z,0.00
2022-08-16T00:37:57.924Z,0.00
2022-08-16T00:38:54.705Z,0.00
2022-08-16T00:39:57.422Z,0.00
2022-08-16T00:40:54.748Z,0.00
2022-08-16T00:41:54.722Z,0.00
2022-08-16T00:42:54.856Z,0.00
2022-08-16T00:43:54.648Z,0.00
2022-08-16T00:44:54.650Z,0.00
2022-08-16T00:45:59.946Z,0.00
2022-08-16T00:47:02.202Z,0.00
2022-08-16T00:47:54.645Z,0.00
2022-08-16T00:48:54.595Z,0.00
2022-08-16T00:49:56.508Z,0.00
2022-08-16T00:50:55.392Z,0.00
2022-08-16T00:51:55.152Z,0.00
2022-08-16T00:52:54.848Z,0.00
2022-08-16T00:53:54.586Z,0.00
2022-08-16T00:54:54.676Z,0.00
2022-08-16T00:55:54.516Z,0.00
2022-08-16T00:56:56.432Z,0.00
2022-08-16T00:57:58.581Z,0.00
2022-08-16T00:58:54.550Z,0.00
2022-08-16T00:59:58.756Z,0.00
2022-08-16T01:00:54.599Z,0.00
2022-08-16T01:01:54.466Z,0.00
2022-08-16T01:02:54.450Z,0.00
2022-08-16T01:03:55.855Z,0.00
2022-08-16T01:05:09.029Z,0.00
2022-08-16T01:05:54.474Z,0.00
2022-08-16T01:07:02.144Z,0.00
2022-08-16T01:07:54.470Z,0.00
2022-08-16T01:08:54.499Z,0.00
2022-08-16T01:09:54.379Z,0.00
2022-08-16T01:10:55.680Z,0.00
2022-08-16T01:11:55.345Z,0.00
2022-08-16T01:12:55.519Z,0.00
2022-08-16T01:13:54.499Z,0.00
2022-08-16T01:14:54.487Z,0.00
2022-08-16T01:15:55.437Z,0.00
2022-08-16T01:16:54.426Z,0.00
2022-08-16T01:17:55.757Z,0.00
2022-08-16T01:18:54.489Z,0.00
2022-08-16T01:19:57.098Z,0.00
2022-08-16T01:20:54.543Z,0.00
2022-08-16T01:21:54.578Z,0.00
2022-08-16T01:22:55.940Z,0.00
2022-08-16T01:24:01.137Z,0.00
2022-08-16T01:24:55.472Z,0.00
2022-08-16T01:26:00.257Z,0.00
2022-08-16T01:26:54.363Z,0.00
2022-08-16T01:27:54.160Z,0.00
2022-08-16T01:28:54.214Z,0.00
2022-08-16T01:29:57.573Z,0.00
2022-08-16T01:30:54.125Z,0.00
2022-08-16T01:31:54.252Z,0.00
2022-08-16T01:33:02.190Z,0.00
2022-08-16T01:33:54.089Z,0.00
2022-08-16T01:34:56.993Z,0.00
2022-08-16T01:35:54.192Z,0.00
2022-08-16T01:36:55.123Z,0.00
2022-08-16T01:37:54.479Z,0.00
2022-08-16T01:38:57.355Z,0.00
2022-08-16T01:39:54.069Z,0.00
2022-08-16T01:40:54.044Z,0.00
2022-08-16T01:41:54.110Z,0.00
2022-08-16T01:42:54.093Z,0.00
2022-08-16T01:43:54.682Z,0.00
2022-08-16T01:44:54.062Z,0.00
2022-08-16T01:45:57.553Z,0.00
2022-08-16T01:46:54.056Z,0.00
2022-08-16T01:47:54.194Z,0.00
2022-08-16T01:48:54.110Z,0.00
2022-08-16T01:50:42.899Z,0.00
2022-08-16T01:51:17.014Z,0.00
2022-08-16T01:51:54.180Z,0.00
2022-08-16T01:52:53.959Z,0.00
2022-08-16T01:53:56.128Z,0.00
2022-08-16T01:54:53.978Z,0.00
2022-08-16T01:55:54.373Z,0.00
2022-08-16T01:56:53.965Z,0.00
2022-08-16T01:57:56.500Z,0.00
2022-08-16T01:58:53.892Z,0.00
2022-08-16T01:59:54.487Z,0.00
2022-08-16T02:00:54.978Z,0.00
2022-08-16T02:02:00.427Z,0.00
2022-08-16T02:02:54.059Z,0.00
2022-08-16T02:03:54.077Z,0.00
2022-08-16T02:04:54.754Z,0.00
2022-08-16T02:05:53.865Z,0.00
2022-08-16T02:06:54.299Z,0.00
2022-08-16T02:07:54.401Z,0.00
2022-08-16T02:08:53.753Z,0.00
2022-08-16T02:09:57.157Z,0.00
2022-08-16T02:10:53.681Z,0.00
2022-08-16T02:11:53.762Z,0.00
2022-08-16T02:12:56.148Z,0.00
2022-08-16T02:13:54.813Z,0.00
2022-08-16T02:14:53.630Z,0.00
2022-08-16T02:15:53.659Z,0.00
2022-08-16T02:16:53.610Z,0.00
2022-08-16T02:17:53.775Z,0.00
2022-08-16T02:18:53.577Z,0.00
2022-08-16T02:20:00.123Z,0.00
2022-08-16T02:20:53.741Z,0.00
2022-08-16T02:22:07.795Z,0.00
2022-08-16T02:22:53.537Z,0.00
2022-08-16T02:23:55.753Z,0.00
2022-08-16T02:24:53.760Z,0.00
2022-08-16T02:25:53.993Z,0.00
2022-08-16T02:26:54.312Z,0.00
2022-08-16T02:27:53.506Z,0.00
2022-08-16T02:28:53.461Z,0.00
2022-08-16T02:30:05.354Z,0.00
2022-08-16T02:30:53.466Z,0.00
2022-08-16T02:32:03.145Z,0.00
2022-08-16T02:32:53.581Z,0.00
2022-08-16T02:33:53.786Z,0.00
2022-08-16T02:34:56.335Z,0.00
2022-08-16T02:35:58.080Z,0.00
2022-08-16T02:36:53.459Z,0.00
2022-08-16T02:37:56.034Z,0.00
2022-08-16T02:38:53.734Z,0.00
2022-08-16T02:39:54.157Z,0.00
2022-08-16T02:40:54.561Z,0.00
2022-08-16T02:41:53.612Z,0.00
2022-08-16T02:42:53.653Z,0.00
2022-08-16T02:43:53.295Z,0.00
2022-08-16T02:44:53.277Z,0.00
2022-08-16T02:45:53.280Z,0.00
2022-08-16T02:46:53.941Z,0.00
2022-08-16T02:48:01.477Z,0.00
2022-08-16T02:48:53.237Z,0.00
2022-08-16T02:49:59.070Z,0.00
2022-08-16T02:51:06.726Z,0.00
2022-08-16T02:51:53.720Z,0.00
2022-08-16T02:52:53.193Z,0.00
2022-08-16T02:53:53.242Z,0.00
2022-08-16T02:54:55.605Z,0.00
2022-08-16T02:55:53.160Z,0.00
2022-08-16T02:56:53.152Z,0.00
2022-08-16T02:57:54.476Z,0.00
2022-08-16T02:58:53.342Z,0.00
2022-08-16T02:59:53.674Z,0.00
2022-08-16T03:00:55.696Z,0.00
2022-08-16T03:01:53.672Z,0.00
2022-08-16T03:02:56.018Z,0.00
2022-08-16T03:04:39.255Z,0.00
2022-08-16T03:04:56.673Z,0.00
2022-08-16T03:05:53.460Z,0.00
2022-08-16T03:06:56.473Z,0.00
2022-08-16T03:07:53.385Z,0.00
2022-08-16T03:08:53.268Z,0.00
2022-08-16T03:09:53.020Z,0.00
2022-08-16T03:10:53.572Z,0.00
2022-08-16T03:11:53.005Z,0.00
2022-08-16T03:12:56.109Z,0.00
2022-08-16T03:13:56.741Z,0.00
2022-08-16T03:14:53.300Z,0.00
2022-08-16T03:15:53.270Z,0.00
2022-08-16T03:16:58.613Z,0.00
2022-08-16T03:17:54.245Z,0.00
2022-08-16T03:18:52.902Z,0.00
2022-08-16T03:20:00.035Z,0.00
2022-08-16T03:20:55.880Z,0.00
2022-08-16T03:21:53.113Z,0.00
2022-08-16T03:22:53.189Z,0.00
2022-08-16T03:23:52.944Z,0.00
2022-08-16T03:24:53.125Z,0.00
2022-08-16T03:25:52.832Z,0.00
2022-08-16T03:26:53.346Z,0.00
2022-08-16T03:27:52.821Z,0.00
2022-08-16T03:28:53.178Z,0.00
2022-08-16T03:29:54.335Z,0.00
2022-08-16T03:30:52.769Z,0.00
2022-08-16T03:31:52.771Z,0.00
2022-08-16T03:32:52.789Z,0.00
2022-08-16T03:33:52.746Z,0.00
2022-08-16T03:34:59.803Z,0.00
2022-08-16T03:35:57.237Z,0.00
2022-08-16T03:36:52.954Z,0.00
2022-08-16T03:38:03.170Z,0.00
2022-08-16T03:38:53.122Z,0.00
2022-08-16T03:39:56.418Z,0.00
2022-08-16T03:40:53.324Z,0.00
2022-08-16T03:41:59.807Z,0.00
2022-08-16T03:43:18.907Z,0.00
2022-08-16T03:43:52.954Z,0.00
2022-08-16T03:44:53.526Z,0.00
2022-08-16T03:45:53.587Z,0.00
2022-08-16T03:46:53.008Z,0.00
2022-08-16T03:47:58.553Z,0.00
2022-08-16T03:48:53.007Z,0.00
2022-08-16T03:49:52.875Z,0.00
2022-08-16T03:50:59.592Z,0.00
2022-08-16T03:51:52.709Z,0.00
2022-08-16T03:52:58.012Z,0.00
2022-08-16T03:54:00.933Z,0.00
2022-08-16T03:54:53.357Z,0.00
2022-08-16T03:55:52.761Z,0.00
2022-08-16T03:56:57.536Z,0.00
2022-08-16T03:57:52.605Z,0.00
2022-08-16T03:58:52.807Z,0.00
2022-08-16T03:59:52.683Z,0.00
2022-08-16T04:00:59.019Z,0.00
2022-08-16T04:01:53.606Z,0.00
2022-08-16T04:02:52.698Z,5.62
2022-08-16T04:03:52.903Z,5.62
2022-08-16T04:04:52.533Z,5.62
2022-08-16T04:05:54.187Z,5.62
2022-08-16T04:06:52.886Z,5.62
2022-08-16T04:07:52.580Z,5.62
2022-08-16T04:08:53.167Z,5.62
2022-08-16T04:09:52.740Z,5.62
2022-08-16T04:10:53.752Z,11.25
2022-08-16T04:11:52.694Z,11.25
2022-08-16T04:13:04.266Z,11.25
2022-08-16T04:14:01.618Z,11.25
2022-08-16T04:14:52.377Z,11.25
2022-08-16T04:15:52.890Z,11.25
2022-08-16T04:16:52.542Z,16.88
2022-08-16T04:17:52.296Z,16.88
2022-08-16T04:18:52.721Z,16.88
2022-08-16T04:19:54.955Z,16.88
2022-08-16T04:20:52.585Z,22.50
2022-08-16T04:21:52.542Z,22.50
2022-08-16T04:22:52.647Z,22.50
2022-08-16T04:23:52.329Z,28.12
2022-08-16T04:24:54.765Z,28.12
2022-08-16T04:25:52.477Z,28.12
2022-08-16T04:26:52.377Z,33.75
2022-08-16T04:27:54.348Z,33.75
2022-08-16T04:29:14.733Z,39.38
2022-08-16T04:29:52.568Z,39.38
2022-08-16T04:30:52.498Z,39.38
2022-08-16T04:31:56.797Z,45.00
2022-08-16T04:32:52.323Z,45.00
2022-08-16T04:33:52.513Z,45.00
2022-08-16T04:34:52.469Z,45.00
2022-08-16T04:35:52.330Z,50.62
2022-08-16T04:36:52.156Z,50.62
2022-08-16T04:37:54.008Z,50.62
2022-08-16T04:38:52.398Z,56.25
2022-08-16T04:39:57.041Z,56.25
2022-08-16T04:40:52.363Z,56.25
2022-08-16T04:41:56.879Z,61.88
2022-08-16T04:42:52.355Z,61.88
2022-08-16T04:43:52.169Z,61.88
2022-08-16T04:44:54.013Z,67.50
2022-08-16T04:46:00.441Z,67.50
2022-08-16T04:47:02.613Z,67.50
2022-08-16T04:47:56.330Z,67.50
2022-08-16T04:48:51.969Z,73.12
2022-08-16T04:49:52.564Z,73.12
2022-08-16T04:50:51.890Z,78.75
2022-08-16T04:51:53.703Z,78.75
2022-08-16T04:52:52.395Z,84.38
2022-08-16T04:53:52.240Z,84.38
2022-08-16T04:54:51.827Z,90.00
2022-08-16T04:55:53.428Z,90.00
2022-08-16T04:56:51.796Z,95.62
2022-08-16T04:57:53.691Z,95.62
2022-08-16T04:58:51.804Z,101.25
2022-08-16T04:59:51.808Z,106.88
2022-08-16T05:00:51.762Z,112.50
2022-08-16T05:01:57.927Z,118.12
2022-08-16T05:02:55.625Z,123.75
2022-08-16T05:04:00.669Z,129.38
2022-08-16T05:04:51.790Z,140.62
2022-08-16T05:05:58.948Z,146.25
2022-08-16T05:06:51.702Z,151.88
2022-08-16T05:07:58.357Z,151.88
2022-08-16T05:08:51.669Z,157.50
2022-08-16T05:09:51.710Z,157.50
2022-08-16T05:10:51.687Z,163.12
2022-08-16T05:11:51.635Z,163.12
2022-08-16T05:12:51.639Z,163.12
2022-08-16T05:13:51.817Z,163.12
2022-08-16T05:15:02.383Z,163.12
2022-08-16T05:15:51.623Z,163.12
2022-08-16T05:16:52.165Z,168.75
2022-08-16T05:17:58.589Z,168.75
2022-08-16T05:18:51.556Z,168.75
2022-08-16T05:19:58.093Z,168.75
2022-08-16T05:21:01.242Z,168.75
2022-08-16T05:21:51.607Z,168.75
2022-08-16T05:22:51.582Z,168.75
2022-08-16T05:23:55.651Z,168.75
2022-08-16T05:24:54.910Z,174.38
2022-08-16T05:25:51.472Z,174.38
2022-08-16T05:26:51.806Z,174.38
2022-08-16T05:27:51.506Z,180.00
2022-08-16T05:28:57.475Z,180.00
2022-08-16T05:30:00.028Z,180.00
2022-08-16T05:30:57.889Z,180.00
2022-08-16T05:31:53.326Z,180.00
2022-08-16T05:32:51.691Z,180.00
2022-08-16T05:33:53.648Z,180.00
2022-08-16T05:34:51.403Z,180.00
2022-08-16T05:35:55.661Z,180.00
2022-08-16T05:36:51.548Z,180.00
2022-08-16T05:37:51.335Z,180.00
2022-08-16T05:38:51.318Z,180.00
2022-08-16T05:39:51.387Z,180.00
2022-08-16T05:41:00.135Z,180.00
2022-08-16T05:41:52.401Z,185.62
2022-08-16T05:42:51.629Z,185.62
2022-08-16T05:43:51.299Z,185.62
2022-08-16T05:44:51.564Z,191.25
2022-08-16T05:45:51.264Z,191.25
2022-08-16T05:46:51.272Z,191.25
2022-08-16T05:47:59.538Z,196.88
2022-08-16T05:48:54.962Z,196.88
2022-08-16T05:49:51.233Z,196.88
2022-08-16T05:50:52.924Z,202.50
2022-08-16T05:51:51.451Z,202.50
2022-08-16T05:52:51.577Z,202.50
2022-08-16T05:53:51.231Z,208.12
2022-08-16T05:54:58.523Z,208.12
2022-08-16T05:55:51.689Z,208.12
2022-08-16T05:56:51.367Z,208.12
2022-08-16T05:57:52.671Z,202.50
2022-08-16T05:58:51.391Z,196.88
2022-08-16T06:00:00.256Z,196.88
2022-08-16T06:00:51.256Z,191.25
2022-08-16T06:01:51.432Z,185.62
2022-08-16T06:02:51.371Z,185.62
2022-08-16T06:03:51.181Z,180.00
2022-08-16T06:04:51.333Z,180.00
2022-08-16T06:05:51.130Z,174.38
2022-08-16T06:06:56.714Z,168.75
2022-08-16T06:07:58.536Z,168.75
2022-08-16T06:08:51.078Z,163.12
2022-08-16T06:09:51.116Z,163.12
2022-08-16T06:11:09.917Z,157.50
2022-08-16T06:11:51.177Z,157.50
2022-08-16T06:12:55.672Z,157.50
2022-08-16T06:13:51.021Z,157.50
2022-08-16T06:14:51.406Z,157.50
2022-08-16T06:15:51.099Z,157.50
2022-08-16T06:16:51.212Z,157.50
2022-08-16T06:17:52.082Z,157.50
2022-08-16T06:18:51.077Z,163.12
2022-08-16T06:19:51.228Z,163.12
2022-08-16T06:20:55.238Z,168.75
2022-08-16T06:21:55.110Z,168.75
2022-08-16T06:22:58.988Z,168.75
2022-08-16T06:23:51.093Z,168.75
2022-08-16T06:24:54.410Z,163.12
2022-08-16T06:25:53.315Z,163.12
2022-08-16T06:26:58.043Z,163.12
2022-08-16T06:27:57.565Z,163.12
2022-08-16T06:28:52.654Z,163.12
2022-08-16T06:29:51.011Z,163.12
2022-08-16T06:30:50.992Z,163.12
2022-08-16T06:31:51.573Z,163.12
2022-08-16T06:32:51.088Z,168.75
2022-08-16T06:33:51.757Z,168.75
2022-08-16T06:34:57.291Z,168.75
2022-08-16T06:35:50.801Z,168.75
2022-08-16T06:36:50.822Z,168.75
2022-08-16T06:37:51.451Z,168.75
2022-08-16T06:38:55.449Z,174.38
2022-08-16T06:39:50.811Z,174.38
2022-08-16T06:40:50.870Z,174.38
2022-08-16T06:41:50.736Z,174.38
2022-08-16T06:42:55.350Z,174.38
2022-08-16T06:43:51.088Z,180.00
2022-08-16T06:44:50.952Z,180.00
2022-08-16T06:45:50.880Z,180.00
2022-08-16T06:46:50.926Z,185.62
2022-08-16T06:47:54.372Z,185.62
2022-08-16T06:48:51.927Z,185.62
2022-08-16T06:49:52.914Z,185.62
2022-08-16T06:50:51.334Z,185.62
2022-08-16T06:51:50.504Z,185.62
2022-08-16T06:52:57.810Z,185.62
2022-08-16T06:53:52.684Z,185.62
2022-08-16T06:54:50.523Z,185.62
2022-08-16T06:55:53.861Z,185.62
2022-08-16T06:56:52.405Z,185.62
2022-08-16T06:57:50.445Z,185.62
2022-08-16T06:58:50.468Z,185.62
2022-08-16T06:59:52.893Z,185.62
2022-08-16T07:00:50.487Z,191.25
2022-08-16T07:01:53.595Z,191.25
2022-08-16T07:02:51.401Z,191.25
2022-08-16T07:03:55.187Z,191.25
2022-08-16T07:04:50.476Z,196.88
2022-08-16T07:05:50.337Z,196.88
2022-08-16T07:06:50.370Z,196.88
2022-08-16T07:07:50.974Z,202.50
2022-08-16T07:08:50.354Z,208.12
2022-08-16T07:09:51.324Z,213.75
2022-08-16T07:10:50.332Z,213.75
2022-08-16T07:11:51.655Z,219.38
2022-08-16T07:13:04.029Z,219.38
2022-08-16T07:14:00.171Z,225.00
2022-08-16T07:14:50.272Z,225.00
2022-08-16T07:15:51.155Z,230.62
2022-08-16T07:16:50.250Z,230.62
2022-08-16T07:17:50.204Z,230.62
2022-08-16T07:18:59.186Z,236.25
2022-08-16T07:20:03.531Z,236.25
2022-08-16T07:20:50.201Z,241.88
2022-08-16T07:21:59.531Z,241.88
2022-08-16T07:22:53.154Z,241.88
2022-08-16T07:23:50.139Z,241.88
2022-08-16T07:24:52.853Z,247.50
2022-08-16T07:25:50.829Z,253.12
2022-08-16T07:26:50.114Z,253.12
2022-08-16T07:27:50.099Z,253.12
2022-08-16T07:28:50.166Z,258.75
2022-08-16T07:29:50.060Z,258.75
2022-08-16T07:30:50.058Z,258.75
2022-08-16T07:31:50.065Z,264.38
2022-08-16T07:32:51.618Z,264.38
2022-08-16T07:33:52.336Z,270.00
2022-08-16T07:34:50.742Z,270.00
2022-08-16T07:35:50.078Z,270.00
2022-08-16T07:36:58.048Z,270.00
2022-08-16T07:37:49.977Z,264.38
2022-08-16T07:38:50.183Z,264.38
2022-08-16T07:39:50.841Z,258.75
2022-08-16T07:41:00.053Z,258.75
2022-08-16T07:41:49.932Z,258.75
2022-08-16T07:42:50.193Z,258.75
2022-08-16T07:43:49.928Z,258.75
2022-08-16T07:44:50.826Z,264.38
2022-08-16T07:45:53.166Z,264.38
2022-08-16T07:46:56.233Z,264.38
2022-08-16T07:47:51.231Z,270.00
2022-08-16T07:48:49.852Z,270.00
2022-08-16T07:49:57.894Z,270.00
2022-08-16T07:50:56.868Z,270.00
2022-08-16T07:51:49.848Z,270.00
2022-08-16T07:52:50.155Z,270.00
2022-08-16T07:53:49.789Z,270.00
2022-08-16T07:54:53.233Z,270.00
2022-08-16T07:55:49.803Z,270.00
2022-08-16T07:56:49.796Z,275.62
2022-08-16T07:57:59.853Z,275.62
2022-08-16T07:58:49.774Z,275.62
2022-08-16T07:59:49.743Z,275.62
2022-08-16T08:00:49.775Z,275.62
2022-08-16T08:01:49.691Z,281.25
2022-08-16T08:02:52.167Z,281.25
2022-08-16T08:03:49.687Z,281.25
2022-08-16T08:04:49.728Z,281.25
2022-08-16T08:05:49.649Z,281.25
2022-08-16T08:06:51.130Z,281.25
2022-08-16T08:07:49.634Z,281.25
2022-08-16T08:08:52.598Z,281.25
2022-08-16T08:09:50.107Z,281.25
2022-08-16T08:10:49.649Z,281.25
2022-08-16T08:11:59.821Z,281.25
2022-08-16T08:12:49.726Z,281.25
2022-08-16T08:13:49.589Z,281.25
2022-08-16T08:14:49.557Z,275.62
2022-08-16T08:15:52.712Z,275.62
2022-08-16T08:16:49.658Z,275.62
2022-08-16T08:17:49.522Z,275.62
2022-08-16T08:18:50.348Z,275.62
2022-08-16T08:19:53.172Z,275.62
2022-08-16T08:20:59.593Z,275.62
2022-08-16T08:21:59.297Z,275.62
2022-08-16T08:22:49.787Z,275.62
2022-08-16T08:23:50.342Z,270.00
2022-08-16T08:24:49.438Z,275.62
2022-08-16T08:25:54.152Z,275.62
2022-08-16T08:26:50.672Z,275.62
2022-08-16T08:27:49.415Z,270.00
2022-08-16T08:28:49.492Z,270.00
2022-08-16T08:30:50.609Z,270.00
2022-08-16T08:31:02.503Z,270.00
2022-08-16T08:31:49.355Z,270.00
2022-08-16T08:32:59.821Z,270.00
2022-08-16T08:33:51.554Z,270.00
2022-08-16T08:34:49.411Z,275.62
2022-08-16T08:35:49.319Z,275.62
2022-08-16T08:36:49.299Z,275.62
2022-08-16T08:37:55.453Z,275.62
2022-08-16T08:38:49.292Z,275.62
2022-08-16T08:39:55.187Z,275.62
2022-08-16T08:40:49.363Z,275.62
2022-08-16T08:41:49.339Z,270.00
2022-08-16T08:42:49.401Z,270.00
2022-08-16T08:43:50.413Z,270.00
2022-08-16T08:44:49.219Z,270.00
2022-08-16T08:45:52.538Z,270.00
2022-08-16T08:47:00.605Z,270.00
2022-08-16T08:47:58.357Z,270.00
2022-08-16T08:48:59.054Z,275.62
2022-08-16T08:49:55.460Z,281.25
2022-08-16T08:50:50.171Z,281.25
2022-08-16T08:51:49.129Z,281.25
2022-08-16T08:52:49.420Z,286.88
2022-08-16T08:53:57.261Z,286.88
2022-08-16T08:54:50.472Z,292.50
2022-08-16T08:55:49.093Z,292.50
2022-08-16T08:56:49.095Z,292.50
2022-08-16T08:57:49.057Z,298.12
2022-08-16T08:58:54.115Z,298.12
2022-08-16T08:59:49.053Z,298.12
2022-08-16T09:00:50.275Z,298.12
2022-08-16T09:01:56.544Z,298.12
2022-08-16T09:02:51.981Z,303.75
2022-08-16T09:03:49.024Z,303.75
2022-08-16T09:04:49.048Z,303.75
2022-08-16T09:05:51.497Z,303.75
2022-08-16T09:06:48.994Z,303.75
2022-08-16T09:08:00.617Z,303.75
2022-08-16T09:08:48.944Z,309.38
2022-08-16T09:09:48.930Z,309.38
2022-08-16T09:10:48.985Z,309.38
2022-08-16T09:11:53.456Z,309.38
2022-08-16T09:12:49.135Z,309.38
2022-08-16T09:13:48.884Z,315.00
2022-08-16T09:14:50.939Z,315.00
2022-08-16T09:15:48.858Z,315.00
2022-08-16T09:17:01.366Z,315.00
2022-08-16T09:17:52.227Z,315.00
2022-08-16T09:18:53.444Z,320.62
2022-08-16T09:19:52.696Z,320.62
2022-08-16T09:20:59.155Z,320.62
2022-08-16T09:21:48.810Z,320.62
2022-08-16T09:22:48.836Z,315.00
2022-08-16T09:23:48.980Z,315.00
2022-08-16T09:24:52.996Z,315.00
2022-08-16T09:25:48.985Z,320.62
2022-08-16T09:26:48.855Z,320.62
2022-08-16T09:27:57.959Z,320.62
2022-08-16T09:29:15.551Z,320.62
2022-08-16T09:29:48.949Z,326.25
2022-08-16T09:30:48.739Z,326.25
2022-08-16T09:31:53.661Z,326.25
2022-08-16T09:32:48.983Z,326.25
2022-08-16T09:33:51.819Z,331.88
2022-08-16T09:34:49.005Z,331.88
2022-08-16T09:35:53.786Z,331.88
2022-08-16T09:36:49.023Z,331.88
2022-08-16T09:38:00.497Z,331.88
2022-08-16T09:38:48.766Z,331.88
2022-08-16T09:39:50.477Z,337.50
2022-08-16T09:40:49.178Z,337.50
2022-08-16T09:41:49.132Z,337.50
2022-08-16T09:42:58.726Z,337.50
2022-08-16T09:43:58.768Z,343.12
2022-08-16T09:45:12.405Z,343.12
2022-08-16T09:45:49.012Z,343.12
2022-08-16T09:46:49.936Z,343.12
2022-08-16T09:47:56.184Z,348.75
2022-08-16T09:48:51.166Z,348.75
2022-08-16T09:49:50.932Z,348.75
2022-08-16T09:50:48.493Z,348.75
2022-08-16T09:51:49.658Z,348.75
2022-08-16T09:52:48.578Z,348.75
2022-08-16T09:53:54.000Z,354.38
2022-08-16T09:54:48.430Z,360.00
2022-08-16T09:55:49.414Z,360.00
2022-08-16T09:56:52.220Z,360.00
2022-08-16T09:57:52.963Z,360.00
2022-08-16T09:59:03.664Z,360.00
2022-08-16T09:59:48.424Z,360.00
2022-08-16T10:00:48.417Z,360.00
2022-08-16T10:01:48.384Z,365.62
2022-08-16T10:02:48.462Z,365.62
2022-08-16T10:04:02.457Z,365.62
2022-08-16T10:04:54.563Z,371.25
2022-08-16T10:05:48.306Z,371.25
2022-08-16T10:06:48.335Z,371.25
2022-08-16T10:07:48.281Z,371.25
2022-08-16T10:09:05.045Z,376.88
2022-08-16T10:09:54.588Z,376.88
2022-08-16T10:10:48.545Z,382.50
2022-08-16T10:11:50.568Z,382.50
2022-08-16T10:12:56.803Z,388.12
2022-08-16T10:13:48.223Z,393.75
2022-08-16T10:14:48.205Z,393.75
2022-08-16T10:15:55.479Z,393.75
2022-08-16T10:16:48.229Z,399.38
2022-08-16T10:18:00.347Z,399.38
2022-08-16T10:19:01.375Z,399.38
2022-08-16T10:19:50.354Z,399.38
2022-08-16T10:20:48.139Z,399.38
2022-08-16T10:21:48.129Z,399.38
2022-08-16T10:22:48.150Z,405.00
2022-08-16T10:23:48.099Z,405.00
2022-08-16T10:24:55.648Z,410.62
2022-08-16T10:27:19.700Z,410.62
2022-08-16T10:27:46.068Z,416.25
2022-08-16T10:27:56.938Z,416.25
2022-08-16T10:28:48.064Z,421.88
2022-08-16T10:30:00.206Z,421.88
2022-08-16T10:30:48.028Z,421.88
2022-08-16T10:31:53.503Z,421.88
2022-08-16T10:32:48.091Z,421.88
2022-08-16T10:33:48.064Z,427.50
2022-08-16T10:34:48.055Z,433.12
2022-08-16T10:35:47.972Z,433.12
2022-08-16T10:36:47.972Z,438.75
2022-08-16T10:37:48.265Z,438.75
2022-08-16T10:38:47.949Z,444.38
2022-08-16T10:39:47.969Z,444.38
2022-08-16T10:40:47.918Z,444.38
2022-08-16T10:41:47.906Z,444.38
2022-08-16T10:42:48.012Z,450.00
2022-08-16T10:43:47.936Z,450.00
2022-08-16T10:44:54.588Z,450.00
2022-08-16T10:46:00.523Z,450.00
2022-08-16T10:46:47.847Z,450.00
2022-08-16T10:47:48.034Z,450.00
2022-08-16T10:48:47.894Z,450.00
2022-08-16T10:49:47.840Z,455.62
2022-08-16T10:50:47.823Z,461.25
2022-08-16T10:52:02.717Z,466.88
2022-08-16T10:52:49.824Z,472.50
2022-08-16T10:53:47.793Z,478.12
2022-08-16T10:55:47.783Z,489.38
2022-08-16T10:56:51.773Z,489.38
2022-08-16T10:57:48.118Z,489.38
2022-08-16T10:58:47.713Z,489.38
2022-08-16T10:59:54.451Z,489.38
2022-08-16T11:00:47.716Z,483.75
2022-08-16T11:02:59.533Z,489.38
2022-08-16T11:03:48.088Z,489.38
2022-08-16T11:06:06.044Z,500.62
2022-08-16T11:07:06.636Z,500.62
2022-08-16T11:07:52.346Z,500.62
2022-08-16T11:08:47.758Z,500.62
2022-08-16T11:09:47.661Z,500.62
2022-08-16T11:11:06.727Z,506.25
2022-08-16T11:12:47.764Z,517.50
2022-08-16T11:14:11.393Z,523.12
2022-08-16T11:15:18.042Z,523.12
2022-08-16T11:15:55.524Z,528.75
2022-08-16T11:17:10.596Z,534.38
2022-08-16T11:18:21.559Z,540.00
2022-08-16T11:19:12.307Z,545.62
2022-08-16T11:20:41.163Z,551.25
2022-08-16T11:20:49.403Z,556.88
2022-08-16T11:22:48.970Z,556.88
2022-08-16T11:23:56.970Z,562.50
2022-08-16T11:25:11.494Z,568.12
2022-08-16T11:26:16.451Z,573.75
2022-08-16T11:27:18.330Z,579.38
2022-08-16T11:27:47.616Z,579.38
2022-08-16T11:29:48.207Z,585.00
2022-08-16T11:30:50.644Z,590.62
2022-08-16T11:31:54.222Z,596.25
2022-08-16T11:32:47.587Z,601.88
2022-08-16T11:33:55.318Z,601.88
2022-08-16T11:35:09.953Z,601.88
2022-08-16T11:36:59.342Z,613.12
2022-08-16T11:38:57.208Z,624.38
2022-08-16T11:39:47.332Z,630.00
2022-08-16T11:40:52.317Z,635.62
2022-08-16T11:41:51.491Z,641.25
2022-08-16T11:42:47.223Z,641.25
2022-08-16T11:43:47.208Z,641.25
2022-08-16T11:44:53.322Z,646.88
2022-08-16T11:45:53.826Z,646.88
2022-08-16T11:46:47.214Z,646.88
2022-08-16T11:47:47.248Z,646.88
2022-08-16T11:48:47.148Z,652.50
2022-08-16T11:49:47.160Z,652.50
2022-08-16T11:50:47.133Z,658.12
2022-08-16T11:51:47.195Z,658.12
2022-08-16T11:52:47.119Z,658.12
2022-08-16T11:53:47.254Z,658.12
2022-08-16T11:54:47.091Z,652.50
2022-08-16T11:55:47.074Z,652.50
2022-08-16T11:56:56.501Z,652.50
2022-08-16T11:57:47.355Z,658.12
2022-08-16T11:58:51.731Z,669.38
2022-08-16T11:59:47.043Z,669.38
2022-08-16T12:00:51.840Z,669.38
2022-08-16T12:01:59.297Z,675.00
2022-08-16T12:02:47.034Z,686.25
2022-08-16T12:03:47.147Z,691.88
2022-08-16T12:04:47.095Z,703.12
2022-08-16T12:05:47.027Z,708.75
2022-08-16T12:06:47.005Z,714.38
2022-08-16T12:07:47.127Z,720.00
2022-08-16T12:08:46.967Z,720.00
2022-08-16T12:09:47.019Z,725.62
2022-08-16T12:10:46.920Z,731.25
2022-08-16T12:11:47.103Z,736.88
2022-08-16T12:12:46.921Z,742.50
2022-08-16T12:13:46.879Z,742.50
2022-08-16T12:14:46.860Z,736.88
2022-08-16T12:15:46.973Z,736.88
2022-08-16T12:16:55.263Z,748.12
2022-08-16T12:17:47.578Z,753.75
2022-08-16T12:19:46.804Z,765.00
2022-08-16T12:20:46.858Z,765.00
2022-08-16T12:21:58.341Z,770.62
2022-08-16T12:22:46.786Z,770.62
2022-08-16T12:23:46.771Z,770.62
2022-08-16T12:24:47.916Z,776.25
2022-08-16T12:25:46.746Z,787.50
2022-08-16T12:26:46.735Z,798.75
2022-08-16T12:27:47.193Z,804.38
2022-08-16T12:28:55.862Z,810.00
2022-08-16T12:29:46.709Z,815.62
2022-08-16T12:30:47.368Z,815.62
2022-08-16T12:32:01.317Z,815.62
2022-08-16T12:32:53.051Z,832.50
2022-08-16T12:33:46.729Z,843.75
2022-08-16T12:34:50.710Z,849.38
2022-08-16T12:35:46.751Z,855.00
2022-08-16T12:36:46.678Z,866.25
2022-08-16T12:37:47.209Z,894.38
2022-08-16T12:38:48.372Z,928.12
2022-08-16T12:39:47.160Z,1670.62
2022-08-16T12:40:46.588Z,2531.25
2022-08-16T12:41:46.587Z,2610.00
2022-08-16T12:42:53.103Z,2565.00
2022-08-16T12:43:46.684Z,2525.62
2022-08-16T12:44:46.645Z,2542.50
2022-08-16T12:45:47.254Z,2559.38
2022-08-16T12:46:46.516Z,2570.62
2022-08-16T12:47:46.555Z,2621.25
2022-08-16T12:48:46.563Z,2666.25
2022-08-16T12:49:46.485Z,2643.75
2022-08-16T12:50:49.250Z,2671.88
2022-08-16T12:51:58.059Z,2745.00
2022-08-16T12:52:52.731Z,2750.62
2022-08-16T12:53:46.475Z,2745.00
2022-08-16T12:54:54.840Z,2716.88